Time;durP1;ratioP1;P1;durP2;ratioP2;P2;SDS_P1;SDS_P2;PMS_P1;PMS_P2;Temp;Humidity;BMP_temperature;BMP_pressure;BME280_temperature;BME280_humidity;BME280_pressure;Samples;Min_cycle;Max_cycle;Signal;HPM_P1;HPM_P2
2023/02/12 00:00:29;;;;;;;;;;;;;;;19.90;27.09;101796.30;105951;1284;61236;-81
2023/02/12 00:02:55;;;;;;;;;;;;;;;19.90;27.01;101794.51;105970;1285;61729;-81
2023/02/12 00:05:21;;;;;;;;;;;;;;;19.91;26.93;101794.86;105951;1285;59959;-81
2023/02/12 00:07:47;;;;;;;;;;;;;;;19.91;26.98;101800.76;105931;1286;61352;-81
2023/02/12 00:10:12;;;;;;;;;;;;;;;19.91;26.95;101806.48;105955;1284;59337;-81
2023/02/12 00:12:38;;;;;;;;;;;;;;;19.91;27.01;101802.17;105871;1285;61359;-81
2023/02/12 00:15:03;;;;;;;;;;;;;;;19.91;27.03;101801.45;105874;1285;61293;-81
2023/02/12 00:17:29;;;;;;;;;;;;;;;19.91;26.97;101800.75;105945;1285;61346;-80
2023/02/12 00:19:54;;;;;;;;;;;;;;;19.91;26.93;101793.60;105930;1285;61280;-80
2023/02/12 00:22:20;;;;;;;;;;;;;;;19.91;26.92;101798.95;105880;1285;61304;-81
2023/02/12 00:24:45;;;;;;;;;;;;;;;19.91;26.91;101800.55;105922;1285;61263;-81
2023/02/12 00:27:11;;;;;;;;;;;;;;;19.91;26.91;101786.99;105863;1286;61380;-81
2023/02/12 00:29:36;;;;;;;;;;;;;;;19.91;26.92;101781.09;105931;1286;61365;-81
2023/02/12 00:32:26;;;;;;;;;;;;;;;19.90;26.94;101779.33;105923;1286;61247;-81
2023/02/12 00:34:52;;;;;;;;;;;;;;;19.91;26.96;101785.94;105237;1292;61372;-81
2023/02/12 00:37:17;;;;;;;;;;;;;;;19.90;27.00;101784.69;105149;1291;61305;-81
2023/02/12 00:39:43;;;;;;;;;;;;;;;19.91;26.97;101788.06;105155;1291;61228;-81
2023/02/12 00:42:08;;;;;;;;;;;;;;;19.90;26.84;101785.40;104954;1296;61262;-81
2023/02/12 00:44:34;;;;;;;;;;;;;;;19.91;26.91;101782.20;104933;1296;61304;-81
2023/02/12 00:47:03;;;;;;;;;;;;;;;19.91;26.93;101791.47;104929;1297;61281;-81
2023/02/12 00:49:32;;;;;;;;;;;;;;;19.91;27.05;101797.16;104995;1297;61282;-81
2023/02/12 00:51:59;;;;;;;;;;;;;;;19.91;27.05;101791.63;104935;1296;73622;-81
2023/02/12 00:54:24;;;;;;;;;;;;;;;19.90;26.97;101790.05;104987;1296;60012;-81
2023/02/12 00:56:50;;;;;;;;;;;;;;;19.90;26.93;101778.60;104976;1296;61447;-81
2023/02/12 00:59:15;;;;;;;;;;;;;;;19.90;27.09;101770.38;104925;1296;61463;-81
2023/02/12 01:01:41;;;;;;;;;;;;;;;19.90;26.89;101761.28;104814;1297;61304;-81
2023/02/12 01:04:07;;;;;;;;;;;;;;;19.91;27.03;101753.23;104963;1296;61423;-81
2023/02/12 01:06:32;;;;;;;;;;;;;;;19.90;26.93;101751.09;104965;1296;74346;-81
2023/02/12 01:08:58;;;;;;;;;;;;;;;19.91;26.94;101753.05;104988;1295;60140;-81
2023/02/12 01:11:23;;;;;;;;;;;;;;;19.91;27.00;101746.98;104943;1289;61472;-81
2023/02/12 01:13:49;;;;;;;;;;;;;;;19.90;27.06;101740.92;105615;1288;61325;-81
2023/02/12 01:16:19;;;;;;;;;;;;;;;19.91;27.11;101738.41;105446;1296;61249;-81
2023/02/12 01:18:44;;;;;;;;;;;;;;;19.91;27.04;101735.20;105429;1289;74702;-81
2023/02/12 01:21:17;;;;;;;;;;;;;;;19.90;27.15;101733.77;105935;1286;61303;-81
2023/02/12 01:23:42;;;;;;;;;;;;;;;19.90;26.95;101731.09;105932;1285;61266;-80
2023/02/12 01:26:11;;;;;;;;;;;;;;;19.90;26.97;101726.66;105852;1285;61320;-80
2023/02/12 01:28:37;;;;;;;;;;;;;;;19.90;27.05;101723.77;105846;1286;74614;-80
2023/02/12 01:31:07;;;;;;;;;;;;;;;19.90;26.95;101724.88;105875;1286;61112;-80
2023/02/12 01:33:34;;;;;;;;;;;;;;;19.90;27.05;101725.02;105876;1286;61273;-81
2023/02/12 01:36:00;;;;;;;;;;;;;;;19.90;27.02;101726.63;105889;1286;73416;-81
2023/02/12 01:38:25;;;;;;;;;;;;;;;19.90;27.00;101719.68;105916;1285;61274;-81
2023/02/12 01:40:51;;;;;;;;;;;;;;;19.90;26.94;101718.95;105864;1286;61336;-81
2023/02/12 01:43:16;;;;;;;;;;;;;;;19.90;26.96;101714.16;105693;1286;61262;-81
2023/02/12 01:45:47;;;;;;;;;;;;;;;19.90;26.85;101707.18;105982;1285;61368;-81
2023/02/12 01:48:13;;;;;;;;;;;;;;;19.90;26.98;101706.63;105932;1284;72389;-81
2023/02/12 01:50:38;;;;;;;;;;;;;;;19.90;27.21;101708.98;105842;1285;61177;-81
2023/02/12 01:53:04;;;;;;;;;;;;;;;19.90;27.12;101714.15;105883;1285;61272;-81
2023/02/12 01:55:29;;;;;;;;;;;;;;;19.90;27.00;101718.78;105880;1286;61322;-81
2023/02/12 01:57:55;;;;;;;;;;;;;;;19.90;27.15;101718.98;105862;1285;61293;-80
2023/02/12 02:00:24;;;;;;;;;;;;;;;19.90;27.04;101727.70;105917;1284;61279;-80
2023/02/12 02:02:53;;;;;;;;;;;;;;;19.90;27.02;101731.99;105878;1285;75332;-81
2023/02/12 02:05:23;;;;;;;;;;;;;;;19.90;27.11;101743.23;105963;1285;60056;-80
2023/02/12 02:07:48;;;;;;;;;;;;;;;19.90;27.03;101748.79;105880;1285;61234;-81
2023/02/12 02:10:14;;;;;;;;;;;;;;;19.90;27.05;101752.72;105896;1286;61297;-81
2023/02/12 02:15:25;;;;;;;;;;;;;;;19.90;27.09;101760.59;105900;1286;61141;-81
2023/02/12 02:17:58;;;;;;;;;;;;;;;19.90;27.13;101761.29;105930;1286;61397;-81
2023/02/12 02:20:59;;;;;;;;;;;;;;;19.90;27.05;101768.79;105968;1288;73478;-81
2023/02/12 02:23:44;;;;;;;;;;;;;;;19.90;27.05;101776.65;105272;1292;74558;-81
2023/02/12 02:26:21;;;;;;;;;;;;;;;19.91;27.09;101787.70;105358;1291;61215;-80
2023/02/12 02:28:56;;;;;;;;;;;;;;;19.91;27.08;101789.30;105304;1292;61445;-81
2023/02/12 02:31:26;;;;;;;;;;;;;;;19.91;27.16;101793.41;105262;1291;72554;-81
2023/02/12 02:34:03;;;;;;;;;;;;;;;19.91;27.18;101793.76;105242;1291;74426;-81
2023/02/12 02:36:34;;;;;;;;;;;;;;;19.92;27.08;101789.10;105231;1291;62021;-81
2023/02/12 02:39:01;;;;;;;;;;;;;;;19.92;27.07;101785.36;105239;1291;61280;-81
2023/02/12 02:41:47;;;;;;;;;;;;;;;19.92;27.14;101775.68;105265;1291;72427;-81
2023/02/12 02:44:14;;;;;;;;;;;;;;;19.92;27.14;101775.16;105269;1294;75447;-81
2023/02/12 02:46:44;;;;;;;;;;;;;;;19.91;27.02;101782.14;105228;1291;61241;-81
2023/02/12 02:49:12;;;;;;;;;;;;;;;19.91;27.06;101783.23;105171;1292;61942;-81
2023/02/12 02:51:42;;;;;;;;;;;;;;;19.91;27.13;101788.40;105249;1291;72218;-81
2023/02/12 02:54:10;;;;;;;;;;;;;;;19.91;27.12;101797.31;105282;1291;75419;-81
2023/02/12 02:56:37;;;;;;;;;;;;;;;19.92;27.04;101797.67;105277;1291;61513;-81
2023/02/12 02:59:03;;;;;;;;;;;;;;;19.91;27.10;101795.02;105928;1284;61297;-81
2023/02/12 03:01:35;;;;;;;;;;;;;;;19.91;27.06;101798.05;105870;1290;61157;-81
2023/02/12 03:04:07;;;;;;;;;;;;;;;19.91;27.03;101796.26;105891;1285;75367;-81
2023/02/12 03:06:47;;;;;;;;;;;;;;;19.92;27.04;101803.58;105960;1286;61240;-81
2023/02/12 03:09:36;;;;;;;;;;;;;;;19.92;27.24;101804.84;105919;1285;61129;-81
2023/02/12 03:12:03;;;;;;;;;;;;;;;19.91;27.09;101803.78;105874;1286;72814;-81
2023/02/12 03:14:30;;;;;;;;;;;;;;;19.91;27.13;101803.59;105866;1285;74430;-81
2023/02/12 03:16:57;;;;;;;;;;;;;;;19.91;27.06;101807.67;105725;1286;61184;-81
2023/02/12 03:19:24;;;;;;;;;;;;;;;19.91;27.11;101813.06;105981;1285;60170;-81
2023/02/12 03:21:52;;;;;;;;;;;;;;;19.92;27.08;101815.20;105943;1285;73549;-80
2023/02/12 03:24:20;;;;;;;;;;;;;;;19.92;27.12;101812.14;105944;1286;74500;-80
2023/02/12 03:26:46;;;;;;;;;;;;;;;19.91;27.14;101808.05;105970;1285;61281;-80
2023/02/12 03:29:38;;;;;;;;;;;;;;;19.91;27.18;101810.91;105958;1286;61228;-80
2023/02/12 03:32:07;;;;;;;;;;;;;;;19.92;27.11;101824.27;105233;1291;72621;-81
2023/02/12 03:34:39;;;;;;;;;;;;;;;19.91;27.05;101824.48;105275;1291;75647;-81
2023/02/12 03:37:07;;;;;;;;;;;;;;;19.92;27.14;101829.13;105303;1291;61290;-81
2023/02/12 03:39:40;;;;;;;;;;;;;;;19.92;27.13;101835.56;105243;1291;61570;-81
2023/02/12 03:42:33;;;;;;;;;;;;;;;19.91;27.15;101846.11;105138;1291;72270;-81
2023/02/12 03:45:37;;;;;;;;;;;;;;;19.92;27.03;101847.33;105218;1291;75735;-80
2023/02/12 03:48:02;;;;;;;;;;;;;;;19.92;27.12;101841.61;104751;1299;61168;-81
2023/02/12 03:50:30;;;;;;;;;;;;;;;19.91;27.19;101837.88;104754;1299;61398;-81
2023/02/12 03:52:56;;;;;;;;;;;;;;;19.92;27.20;101836.77;104779;1299;72643;-81
2023/02/12 03:55:22;;;;;;;;;;;;;;;19.92;27.17;101829.64;104753;1300;61261;-81
2023/02/12 03:57:49;;;;;;;;;;;;;;;19.92;27.16;101827.33;104709;1299;61727;-81
2023/02/12 04:00:22;;;;;;;;;;;;;;;19.92;27.13;101832.32;104706;1298;61221;-81
2023/02/12 04:02:48;;;;;;;;;;;;;;;19.91;27.20;101831.45;104747;1299;73624;-81
2023/02/12 04:05:23;;;;;;;;;;;;;;;19.91;27.09;101832.36;104675;1300;61269;-81
2023/02/12 04:07:49;;;;;;;;;;;;;;;19.92;27.11;101840.89;104698;1300;61308;-81
2023/02/12 04:10:15;;;;;;;;;;;;;;;19.91;27.25;101843.41;105160;1291;60122;-81
2023/02/12 04:12:46;;;;;;;;;;;;;;;19.91;27.14;101846.10;105188;1291;61317;-81
2023/02/12 04:15:19;;;;;;;;;;;;;;;19.91;27.05;101847.52;105267;1291;75669;-80
2023/02/12 04:17:50;;;;;;;;;;;;;;;19.91;27.18;101853.79;105282;1291;61335;-81
2023/02/12 04:20:35;;;;;;;;;;;;;;;19.91;27.12;101854.69;105893;1286;61834;-81
2023/02/12 04:23:07;;;;;;;;;;;;;;;19.91;27.18;101852.53;105981;1285;73187;-81
2023/02/12 04:25:36;;;;;;;;;;;;;;;19.91;27.14;101859.52;105924;1285;75282;-82
2023/02/12 04:28:11;;;;;;;;;;;;;;;19.91;27.28;101864.33;105903;1286;60717;-80
2023/02/12 04:30:39;;;;;;;;;;;;;;;19.91;27.16;101860.23;105980;1285;61095;-81
2023/02/12 04:33:05;;;;;;;;;;;;;;;19.91;27.34;101863.10;105713;1285;73444;-81
2023/02/12 04:35:32;;;;;;;;;;;;;;;19.91;27.24;101862.00;105859;1286;61449;-81
2023/02/12 04:38:07;;;;;;;;;;;;;;;19.92;27.23;101865.03;105962;1285;61291;-81
2023/02/12 04:40:33;;;;;;;;;;;;;;;19.91;27.24;101871.11;105948;1286;61128;-81
2023/02/12 04:42:58;;;;;;;;;;;;;;;19.91;27.32;101875.21;105877;1285;61355;-81
2023/02/12 04:45:28;;;;;;;;;;;;;;;19.91;27.23;101878.96;105957;1286;61289;-81
2023/02/12 04:47:54;;;;;;;;;;;;;;;19.91;27.28;101879.50;105990;1285;61268;-81
2023/02/12 04:50:19;;;;;;;;;;;;;;;19.92;27.25;101874.68;105950;1286;61281;-81
2023/02/12 04:52:45;;;;;;;;;;;;;;;19.91;27.29;101872.90;105942;1286;61730;-81
2023/02/12 04:55:10;;;;;;;;;;;;;;;19.91;27.21;101872.02;105867;1284;61210;-81
2023/02/12 04:57:36;;;;;;;;;;;;;;;19.91;27.31;101876.13;105933;1286;61244;-81
2023/02/12 05:00:05;;;;;;;;;;;;;;;19.91;27.23;101880.41;105939;1285;61144;-81
2023/02/12 05:02:41;;;;;;;;;;;;;;;19.91;27.32;101888.45;105832;1286;61253;-80
2023/02/12 05:05:07;;;;;;;;;;;;;;;19.91;27.29;101889.53;105956;1285;71939;-80
2023/02/12 05:07:32;;;;;;;;;;;;;;;19.91;27.23;101890.05;105970;1286;61295;-81
2023/02/12 05:09:58;;;;;;;;;;;;;;;19.91;27.24;101894.55;105899;1285;61246;-81
2023/02/12 05:12:23;;;;;;;;;;;;;;;19.91;27.22;101897.92;105872;1286;61275;-82
2023/02/12 05:14:50;;;;;;;;;;;;;;;19.91;27.27;101894.02;105951;1286;61361;-81
2023/02/12 05:17:16;;;;;;;;;;;;;;;19.91;27.29;101896.15;105947;1285;61266;-81
2023/02/12 05:19:41;;;;;;;;;;;;;;;19.91;27.36;101898.80;105880;1286;61444;-81
2023/02/12 05:22:07;;;;;;;;;;;;;;;19.91;27.20;101900.06;105983;1286;61189;-81
2023/02/12 05:24:32;;;;;;;;;;;;;;;19.91;27.28;101900.94;105891;1286;61333;-82
2023/02/12 05:26:58;;;;;;;;;;;;;;;19.91;27.21;101906.30;105857;1286;61323;-81
2023/02/12 05:29:23;;;;;;;;;;;;;;;19.92;27.40;101913.98;105855;1286;61375;-81
2023/02/12 05:31:49;;;;;;;;;;;;;;;19.92;27.26;101915.41;105631;1288;61278;-82
2023/02/12 05:34:14;;;;;;;;;;;;;;;19.91;27.29;101923.47;105541;1289;59938;-81
2023/02/12 05:36:40;;;;;;;;;;;;;;;19.91;27.31;101928.29;105545;1293;61279;-81
2023/02/12 05:39:06;;;;;;;;;;;;;;;19.92;27.46;101936.86;105553;1289;60179;-81
2023/02/12 05:41:34;;;;;;;;;;;;;;;19.92;27.36;101941.31;105611;1288;61771;-81
2023/02/12 05:44:00;;;;;;;;;;;;;;;19.92;27.26;101944.90;105592;1289;61358;-81
2023/02/12 05:46:26;;;;;;;;;;;;;;;19.92;27.38;101945.06;105501;1289;61240;-81
2023/02/12 05:48:51;;;;;;;;;;;;;;;19.92;27.28;101947.39;105528;1288;61361;-81
2023/02/12 05:51:20;;;;;;;;;;;;;;;19.92;27.33;101957.20;105553;1289;61388;-81
2023/02/12 05:53:46;;;;;;;;;;;;;;;19.93;27.25;101964.31;105639;1288;61344;-81
2023/02/12 05:56:19;;;;;;;;;;;;;;;19.93;27.31;101971.10;105553;1289;61371;-81
2023/02/12 05:58:45;;;;;;;;;;;;;;;19.93;27.33;101975.91;105619;1288;72537;-81
2023/02/12 06:01:14;;;;;;;;;;;;;;;19.93;27.40;101972.88;105559;1289;61313;-81
2023/02/12 06:03:40;;;;;;;;;;;;;;;19.93;27.28;101973.20;105878;1286;60940;-81
2023/02/12 06:06:07;;;;;;;;;;;;;;;19.93;27.28;101973.94;105863;1286;61277;-81
2023/02/12 06:08:32;;;;;;;;;;;;;;;19.94;27.49;101977.14;105937;1286;61289;-81
2023/02/12 06:10:59;;;;;;;;;;;;;;;19.93;27.34;101980.91;105943;1285;61300;-81
2023/02/12 06:13:24;;;;;;;;;;;;;;;19.94;27.44;101984.82;105886;1285;61142;-81
2023/02/12 06:15:50;;;;;;;;;;;;;;;19.93;27.39;101987.50;105948;1286;61282;-81
2023/02/12 06:18:15;;;;;;;;;;;;;;;19.94;27.43;101989.81;105980;1285;61324;-81
2023/02/12 06:20:41;;;;;;;;;;;;;;;19.94;27.39;101988.55;105957;1285;72494;-81
2023/02/12 06:23:08;;;;;;;;;;;;;;;19.94;27.47;101989.98;105848;1286;61255;-81
2023/02/12 06:25:33;;;;;;;;;;;;;;;19.95;27.38;101995.50;105932;1284;61272;-81
2023/02/12 06:27:59;;;;;;;;;;;;;;;19.95;27.42;101994.77;105978;1286;61352;-81
2023/02/12 06:30:25;;;;;;;;;;;;;;;19.95;27.45;101993.53;105879;1286;61334;-81
2023/02/12 06:32:50;;;;;;;;;;;;;;;19.96;27.34;101997.95;105838;1285;61393;-81
2023/02/12 06:35:16;;;;;;;;;;;;;;;19.96;27.38;101997.56;105974;1286;59279;-81
2023/02/12 06:37:41;;;;;;;;;;;;;;;19.96;27.50;101997.21;105860;1286;61264;-81
2023/02/12 06:40:07;;;;;;;;;;;;;;;19.97;27.40;102004.70;105861;1286;61278;-81
2023/02/12 06:42:32;;;;;;;;;;;;;;;19.97;27.35;102011.13;105861;1284;61302;-82
2023/02/12 06:44:58;;;;;;;;;;;;;;;19.97;27.36;102010.03;105861;1285;61293;-81
2023/02/12 06:47:23;;;;;;;;;;;;;;;19.97;27.43;102014.33;105927;1286;61304;-81
2023/02/12 06:49:49;;;;;;;;;;;;;;;19.98;27.45;102016.63;105637;1288;61358;-81
2023/02/12 06:52:16;;;;;;;;;;;;;;;19.98;27.36;102020.73;105948;1284;61397;-81
2023/02/12 06:54:42;;;;;;;;;;;;;;;19.98;27.40;102019.83;105884;1285;72512;-81
2023/02/12 06:57:08;;;;;;;;;;;;;;;19.98;27.38;102023.75;105946;1284;61350;-81
2023/02/12 06:59:34;;;;;;;;;;;;;;;19.99;27.58;102025.87;105858;1285;61243;-81
2023/02/12 07:01:59;;;;;;;;;;;;;;;19.99;27.51;102028.72;105312;1284;810068;-81
2023/02/12 07:04:25;;;;;;;;;;;;;;;19.99;27.42;102030.13;106182;1283;61230;-81
2023/02/12 07:06:51;;;;;;;;;;;;;;;19.99;27.46;102028.86;106317;1283;61281;-81
2023/02/12 07:09:17;;;;;;;;;;;;;;;20.00;27.55;102025.27;106218;1283;61271;-81
2023/02/12 07:11:43;;;;;;;;;;;;;;;20.00;27.55;102026.69;106070;1282;59272;-81
2023/02/12 07:14:12;;;;;;;;;;;;;;;20.00;27.32;102027.40;106252;1282;61317;-82
2023/02/12 07:16:38;;;;;;;;;;;;;;;20.01;27.30;102040.96;106376;1282;72550;-82
2023/02/12 07:19:03;;;;;;;;;;;;;;;20.01;27.48;102041.32;106475;1282;61273;-82
2023/02/12 07:21:29;;;;;;;;;;;;;;;20.01;27.41;102044.14;106284;1282;61288;-83
2023/02/12 07:23:55;;;;;;;;;;;;;;;20.02;27.42;102049.49;106236;1282;61230;-82
2023/02/12 07:26:20;;;;;;;;;;;;;;;20.02;27.52;102049.82;106215;1281;60116;-82
2023/02/12 07:28:47;;;;;;;;;;;;;;;20.02;27.49;102051.08;106331;1282;61273;-82
2023/02/12 07:31:16;;;;;;;;;;;;;;;20.03;27.49;102052.30;106202;1282;75538;-82
2023/02/12 07:33:43;;;;;;;;;;;;;;;20.03;27.52;102054.81;106248;1282;61724;-82
2023/02/12 07:36:12;;;;;;;;;;;;;;;20.03;27.59;102054.45;106040;1282;61282;-82
2023/02/12 07:38:38;;;;;;;;;;;;;;;20.03;27.63;102058.90;106197;1283;72622;-82
2023/02/12 07:41:07;;;;;;;;;;;;;;;20.03;27.53;102062.65;106211;1283;75766;-82
2023/02/12 07:43:32;;;;;;;;;;;;;;;20.03;27.51;102064.06;106308;1282;61149;-83
2023/02/12 07:46:05;;;;;;;;;;;;;;;20.03;27.49;102065.84;106298;1282;61343;-82
2023/02/12 07:48:32;;;;;;;;;;;;;;;20.04;27.47;102066.54;106187;1282;73567;-82
2023/02/12 07:51:01;;;;;;;;;;;;;;;20.03;27.54;102069.41;106211;1281;75700;-82
2023/02/12 07:53:26;;;;;;;;;;;;;;;20.03;27.48;102068.16;106192;1283;61334;-82
2023/02/12 07:55:52;;;;;;;;;;;;;;;20.04;27.49;102072.80;106343;1282;61361;-82
2023/02/12 07:58:17;;;;;;;;;;;;;;;20.04;27.44;102077.44;106215;1283;61959;-82
2023/02/12 08:00:43;;;;;;;;;;;;;;;20.04;27.53;102078.13;106308;1282;61291;-82
2023/02/12 08:03:09;;;;;;;;;;;;;;;20.04;27.45;102080.30;106331;1283;61342;-82
2023/02/12 08:05:34;;;;;;;;;;;;;;;20.04;27.47;102082.78;106208;1282;61164;-83
2023/02/12 08:08:00;;;;;;;;;;;;;;;20.05;27.62;102087.20;106207;1282;61912;-82
2023/02/12 08:10:25;;;;;;;;;;;;;;;20.05;27.49;102092.94;106211;1287;61228;-82
2023/02/12 08:12:51;;;;;;;;;;;;;;;20.05;27.53;102093.47;106198;1282;61120;-82
2023/02/12 08:15:16;;;;;;;;;;;;;;;20.05;27.49;102092.58;106249;1282;61313;-82
2023/02/12 08:17:42;;;;;;;;;;;;;;;20.05;27.58;102092.04;106209;1283;61211;-82
2023/02/12 08:20:08;;;;;;;;;;;;;;;20.05;27.53;102090.60;106331;1281;61339;-82
2023/02/12 08:22:33;;;;;;;;;;;;;;;20.06;27.52;102086.81;106187;1283;61227;-82
2023/02/12 08:24:59;;;;;;;;;;;;;;;20.06;27.49;102084.86;106190;1283;61279;-82
2023/02/12 08:27:24;;;;;;;;;;;;;;;20.06;27.51;102085.92;106213;1282;61381;-82
2023/02/12 08:29:52;;;;;;;;;;;;;;;20.06;27.38;102087.71;106210;1283;59979;-82
2023/02/12 08:32:18;;;;;;;;;;;;;;;20.06;27.53;102096.45;106174;1282;61199;-82
2023/02/12 08:34:43;;;;;;;;;;;;;;;20.06;27.39;102098.05;106196;1282;61393;-83
2023/02/12 08:37:09;;;;;;;;;;;;;;;20.06;27.37;102102.53;106316;1282;61352;-83
2023/02/12 08:39:36;;;;;;;;;;;;;;;20.06;27.51;102101.82;106182;1283;61295;-82
2023/02/12 08:42:02;;;;;;;;;;;;;;;20.06;27.47;102107.73;106174;1282;61271;-82
2023/02/12 08:44:27;;;;;;;;;;;;;;;20.06;27.40;102114.33;106312;1282;61240;-82
2023/02/12 08:46:57;;;;;;;;;;;;;;;20.06;27.37;102120.56;106352;1282;61265;-82
2023/02/12 08:49:24;;;;;;;;;;;;;;;20.06;27.35;102125.75;106278;1281;74457;-82
2023/02/12 08:51:50;;;;;;;;;;;;;;;20.06;27.47;102128.43;106308;1281;61263;-82
2023/02/12 08:54:17;;;;;;;;;;;;;;;20.07;27.44;102129.85;106317;1283;61113;-82
2023/02/12 08:56:44;;;;;;;;;;;;;;;20.07;27.42;102138.06;106312;1285;71429;-82
2023/02/12 08:59:10;;;;;;;;;;;;;;;20.07;27.45;102139.14;106189;1282;74232;-82
2023/02/12 09:01:42;;;;;;;;;;;;;;;20.07;27.38;102145.04;106212;1283;61718;-83
2023/02/12 09:04:09;;;;;;;;;;;;;;;20.07;27.38;102150.03;106235;1283;61241;-82
2023/02/12 09:06:34;;;;;;;;;;;;;;;20.07;27.33;102153.25;106054;1282;73459;-82
2023/02/12 09:09:00;;;;;;;;;;;;;;;20.07;27.46;102154.47;106241;1283;61351;-82
2023/02/12 09:11:29;;;;;;;;;;;;;;;20.07;27.47;102158.06;106217;1287;61388;-82
2023/02/12 09:13:59;;;;;;;;;;;;;;;20.07;27.42;102158.41;106193;1282;61391;-82
2023/02/12 09:16:26;;;;;;;;;;;;;;;20.08;27.35;102166.44;106211;1281;71855;-82
2023/02/12 09:18:53;;;;;;;;;;;;;;;20.07;27.42;102165.05;106192;1282;75544;-82
2023/02/12 09:21:19;;;;;;;;;;;;;;;20.07;27.31;102165.40;106300;1282;61119;-83
2023/02/12 09:23:45;;;;;;;;;;;;;;;20.07;27.42;102172.89;106305;1282;61260;-82
2023/02/12 09:26:11;;;;;;;;;;;;;;;20.07;27.38;102175.23;106244;1282;70574;-82
2023/02/12 09:28:38;;;;;;;;;;;;;;;20.07;27.29;102176.30;106321;1282;61243;-82
2023/02/12 09:31:04;;;;;;;;;;;;;;;20.08;27.33;102178.59;106240;1283;61297;-82
2023/02/12 09:33:30;;;;;;;;;;;;;;;20.08;27.42;102183.58;106253;1283;61259;-82
2023/02/12 09:35:59;;;;;;;;;;;;;;;20.08;27.36;102189.11;106261;1281;59361;-82
2023/02/12 09:38:25;;;;;;;;;;;;;;;20.08;27.28;102194.46;106291;1282;74289;-82
2023/02/12 09:41:09;;;;;;;;;;;;;;;20.09;27.29;102191.77;106517;1281;59949;-83
2023/02/12 09:43:54;;;;;;;;;;;;;;;20.09;27.42;102194.95;106445;1282;61074;-83
2023/02/12 09:46:28;;;;;;;;;;;;;;;20.10;27.47;102193.50;106433;1282;73362;-83
2023/02/12 09:49:16;;;;;;;;;;;;;;;20.10;27.39;102195.48;106345;1283;75601;-82
2023/02/12 09:51:43;;;;;;;;;;;;;;;20.10;27.29;102190.48;105563;1288;61531;-82
2023/02/12 09:54:11;;;;;;;;;;;;;;;20.10;27.24;102189.89;105520;1288;61246;-82
2023/02/12 09:56:36;;;;;;;;;;;;;;;20.11;27.25;102197.92;105529;1292;72718;-82
2023/02/12 09:59:05;;;;;;;;;;;;;;;20.11;27.38;102199.55;105420;1288;61336;-82
2023/02/12 10:01:31;;;;;;;;;;;;;;;20.11;27.25;102201.67;105447;1288;60843;-83
2023/02/12 10:03:56;;;;;;;;;;;;;;;20.11;27.43;102198.46;105446;1288;61439;-82
2023/02/12 10:06:26;;;;;;;;;;;;;;;20.11;27.28;102198.82;105412;1289;61304;-82
2023/02/12 10:09:02;;;;;;;;;;;;;;;20.11;27.27;102197.37;105494;1288;73427;-82
2023/02/12 10:11:39;;;;;;;;;;;;;;;20.11;27.30;102200.77;105537;1288;61272;-83
2023/02/12 10:14:26;;;;;;;;;;;;;;;20.12;27.19;102204.52;105474;1288;61633;-83
2023/02/12 10:16:56;;;;;;;;;;;;;;;20.12;27.24;102203.98;105569;1288;72564;-83
2023/02/12 10:19:40;;;;;;;;;;;;;;;20.12;27.30;102204.13;105549;1288;74476;-83
2023/02/12 10:22:09;;;;;;;;;;;;;;;20.12;27.45;102202.53;105545;1288;59713;-82
2023/02/12 10:24:48;;;;;;;;;;;;;;;20.13;27.31;102209.30;105408;1289;61181;-82
2023/02/12 10:27:14;;;;;;;;;;;;;;;20.13;27.29;102213.59;105551;1288;73479;-82
2023/02/12 10:29:42;;;;;;;;;;;;;;;20.13;27.43;102216.61;106076;1285;61254;-82
2023/02/12 10:32:13;;;;;;;;;;;;;;;20.13;27.20;102214.48;106203;1285;61285;-82
2023/02/12 10:34:39;;;;;;;;;;;;;;;20.13;27.37;102214.65;106205;1282;61206;-82
2023/02/12 10:37:11;;;;;;;;;;;;;;;20.13;27.26;102212.84;106267;1282;61257;-82
2023/02/12 10:39:46;;;;;;;;;;;;;;;20.14;27.27;102207.29;106287;1282;74325;-82
2023/02/12 10:42:15;;;;;;;;;;;;;;;20.14;27.26;102208.52;106213;1285;61151;-82
2023/02/12 10:44:40;;;;;;;;;;;;;;;20.14;27.32;102210.48;106308;1282;61119;-82
2023/02/12 10:47:09;;;;;;;;;;;;;;;20.14;27.43;102214.06;106193;1282;61361;-82
2023/02/12 10:49:35;;;;;;;;;;;;;;;20.14;27.40;102211.18;106181;1282;74549;-82
2023/02/12 10:52:15;;;;;;;;;;;;;;;20.14;27.35;102212.98;106332;1282;61265;-82
2023/02/12 10:54:45;;;;;;;;;;;;;;;20.15;27.21;102217.08;106206;1283;61214;-83
2023/02/12 10:57:30;;;;;;;;;;;;;;;20.15;27.31;102217.05;106186;1282;72842;-84
2023/02/12 10:59:58;;;;;;;;;;;;;;;20.16;27.36;102217.02;105516;1288;75296;-83
2023/02/12 11:02:28;;;;;;;;;;;;;;;20.16;27.31;102213.98;105540;1288;61350;-83
2023/02/12 11:04:53;;;;;;;;;;;;;;;20.16;27.40;102214.33;105548;1289;61244;-83
2023/02/12 11:07:19;;;;;;;;;;;;;;;20.16;27.13;102217.36;105541;1288;61391;-83
2023/02/12 11:09:45;;;;;;;;;;;;;;;20.16;27.38;102219.86;105411;1289;61419;-83
2023/02/12 11:12:23;;;;;;;;;;;;;;;20.16;27.31;102227.19;105455;1289;61541;-84
2023/02/12 11:14:49;;;;;;;;;;;;;;;20.17;27.32;102225.36;105533;1289;61653;-84
2023/02/12 11:17:19;;;;;;;;;;;;;;;20.17;27.28;102226.24;105549;1290;61354;-83
2023/02/12 11:19:46;;;;;;;;;;;;;;;20.17;27.16;102221.94;105405;1288;74723;-84
2023/02/12 11:22:17;;;;;;;;;;;;;;;20.18;27.26;102225.49;105437;1290;61170;-84
2023/02/12 11:24:43;;;;;;;;;;;;;;;20.18;27.24;102231.95;105405;1288;61279;-84
2023/02/12 11:27:15;;;;;;;;;;;;;;;20.18;27.30;102235.87;105481;1294;61175;-83
2023/02/12 11:29:41;;;;;;;;;;;;;;;20.18;27.33;102239.44;105523;1289;75328;-83
2023/02/12 11:32:11;;;;;;;;;;;;;;;20.18;27.20;102236.40;105550;1289;61470;-83
2023/02/12 11:34:37;;;;;;;;;;;;;;;20.18;27.43;102237.28;105549;1289;61177;-83
2023/02/12 11:37:03;;;;;;;;;;;;;;;20.19;27.29;102237.98;105731;1283;59992;-83
2023/02/12 11:39:33;;;;;;;;;;;;;;;20.18;27.31;102236.76;106204;1282;61275;-83
2023/02/12 11:42:19;;;;;;;;;;;;;;;20.18;27.37;102236.77;106191;1282;61292;-83
2023/02/12 11:44:50;;;;;;;;;;;;;;;20.18;27.44;102236.03;106324;1282;61780;-83
2023/02/12 11:47:29;;;;;;;;;;;;;;;20.19;27.39;102239.96;106178;1282;73329;-83
2023/02/12 11:49:58;;;;;;;;;;;;;;;20.19;27.29;102239.77;106187;1285;74564;-83
2023/02/12 11:52:26;;;;;;;;;;;;;;;20.19;27.27;102242.98;106201;1283;61369;-83
2023/02/12 11:54:52;;;;;;;;;;;;;;;20.19;27.38;102242.80;106246;1287;61377;-84
2023/02/12 11:57:38;;;;;;;;;;;;;;;20.19;27.38;102244.05;106232;1282;72497;-84
2023/02/12 12:00:04;;;;;;;;;;;;;;;20.19;27.49;102241.90;106360;1283;74450;-83
2023/02/12 12:02:36;;;;;;;;;;;;;;;20.19;27.28;102240.64;106292;1287;61258;-81
2023/02/12 12:05:06;;;;;;;;;;;;;;;20.19;27.39;102238.84;106323;1281;61255;-82
2023/02/12 12:07:33;;;;;;;;;;;;;;;20.19;27.43;102241.70;106156;1283;72652;-82
2023/02/12 12:10:24;;;;;;;;;;;;;;;20.19;27.37;102241.69;106315;1284;59981;-82
2023/02/12 12:12:52;;;;;;;;;;;;;;;20.21;27.36;102241.65;106256;1287;61282;-82
2023/02/12 12:21:00;;;;;;;;;;;;;;;20.22;27.44;102239.80;106055;1283;75511;-83
2023/02/12 12:23:26;;;;;;;;;;;;;;;20.21;27.46;102242.16;106307;1282;61388;-82
2023/02/12 12:25:53;;;;;;;;;;;;;;;20.22;27.51;102247.84;106322;1283;61449;-83
2023/02/12 12:28:31;;;;;;;;;;;;;;;20.23;27.39;102251.20;106221;1287;61241;-82
2023/02/12 12:31:16;;;;;;;;;;;;;;;20.22;27.47;102247.13;106267;1284;74490;-82
2023/02/12 12:34:00;;;;;;;;;;;;;;;20.23;27.58;102244.08;106053;1288;61158;-83
2023/02/12 12:36:47;;;;;;;;;;;;;;;20.23;27.43;102248.84;106436;1282;60906;-83
2023/02/12 12:39:20;;;;;;;;;;;;;;;20.23;27.52;102250.45;106294;1285;72679;-83
2023/02/12 12:42:04;;;;;;;;;;;;;;;20.24;27.56;102253.30;106403;1282;74547;-83